createdAt,value
2019-05-09T00:01:55.670Z,12.60
2019-05-09T00:06:57.110Z,12.60
2019-05-09T00:11:58.620Z,12.50
2019-05-09T00:17:00.092Z,12.40
2019-05-09T00:22:03.301Z,12.40
2019-05-09T00:27:05.249Z,12.30
2019-05-09T00:32:23.993Z,12.20
2019-05-09T00:37:44.231Z,12.10
2019-05-09T00:42:45.675Z,11.90
2019-05-09T00:47:47.287Z,11.90
2019-05-09T00:52:48.734Z,12.00
2019-05-09T00:57:50.618Z,11.90
2019-05-09T01:02:54.041Z,11.80
2019-05-09T01:07:55.904Z,11.80
2019-05-09T01:12:57.348Z,11.80
2019-05-09T01:17:58.795Z,11.80
2019-05-09T01:23:00.360Z,11.80
2019-05-09T01:28:03.268Z,11.70
2019-05-09T01:33:11.030Z,11.70
2019-05-09T01:38:14.219Z,11.70
2019-05-09T01:43:15.941Z,11.80
2019-05-09T01:48:17.453Z,11.80
2019-05-09T01:53:20.808Z,11.80
2019-05-09T01:58:23.244Z,11.60
2019-05-09T02:03:24.972Z,11.60
2019-05-09T02:08:26.523Z,11.50
2019-05-09T02:13:28.095Z,11.50
2019-05-09T02:18:34.089Z,11.50
2019-05-09T02:23:35.734Z,11.50
2019-05-09T02:28:37.270Z,11.50
2019-05-09T02:33:38.723Z,11.50
2019-05-09T02:38:40.174Z,11.40
2019-05-09T02:43:41.626Z,11.40
2019-05-09T02:48:43.158Z,11.40
2019-05-09T02:53:44.593Z,11.40
2019-05-09T02:58:58.900Z,11.30
2019-05-09T03:04:00.693Z,11.40
2019-05-09T03:09:08.656Z,11.30
2019-05-09T03:14:09.402Z,11.30
2019-05-09T03:19:11.039Z,11.40
2019-05-09T03:24:12.632Z,11.30
2019-05-09T03:29:22.778Z,11.30
2019-05-09T03:34:24.259Z,11.20
2019-05-09T03:39:27.624Z,11.20
2019-05-09T03:44:29.451Z,11.20
2019-05-09T03:49:31.022Z,11.20
2019-05-09T03:54:32.475Z,11.20
2019-05-09T03:59:33.906Z,11.20
2019-05-09T04:04:35.441Z,11.20
2019-05-09T04:09:37.537Z,11.20
2019-05-09T04:14:40.558Z,11.20
2019-05-09T04:19:42.017Z,11.20
2019-05-09T04:24:43.481Z,11.20
2019-05-09T04:29:45.311Z,11.20
2019-05-09T04:34:47.323Z,11.30
2019-05-09T04:39:49.078Z,11.30
2019-05-09T04:45:03.245Z,11.50
2019-05-09T04:50:04.755Z,11.60
2019-05-09T04:55:07.937Z,11.60
2019-05-09T05:00:11.824Z,11.60
2019-05-09T05:05:13.323Z,11.70
2019-05-09T05:10:15.192Z,11.80
2019-05-09T05:15:18.325Z,11.90
2019-05-09T05:20:22.086Z,12.00
2019-05-09T05:25:23.736Z,12.40
2019-05-09T05:30:25.281Z,12.50
2019-05-09T05:35:31.698Z,12.60
2019-05-09T05:40:33.943Z,12.60
2019-05-09T05:45:37.618Z,12.60
2019-05-09T05:50:39.672Z,12.60
2019-05-09T05:55:41.222Z,12.50
2019-05-09T06:00:42.667Z,12.60
2019-05-09T06:05:44.204Z,12.70
2019-05-09T06:10:48.179Z,12.80
2019-05-09T06:15:49.002Z,12.70
2019-05-09T06:20:50.643Z,12.70
2019-05-09T06:25:52.381Z,12.50
2019-05-09T06:30:53.824Z,12.50
2019-05-09T06:35:55.264Z,12.40
2019-05-09T06:40:58.127Z,12.40
2019-05-09T06:45:59.866Z,12.50
2019-05-09T06:51:01.381Z,12.50
2019-05-09T06:56:02.924Z,12.60
2019-05-09T07:01:23.221Z,12.70
2019-05-09T07:06:44.594Z,12.90
2019-05-09T07:11:48.461Z,13.10
2019-05-09T07:16:49.831Z,13.20
2019-05-09T07:22:10.455Z,13.20
2019-05-09T07:27:11.930Z,13.40
2019-05-09T07:32:21.213Z,13.50
2019-05-09T07:37:22.783Z,13.70
2019-05-09T07:42:24.436Z,13.70
2019-05-09T07:47:28.200Z,13.70
2019-05-09T07:52:30.275Z,13.70
2019-05-09T07:57:31.928Z,13.80
2019-05-09T08:02:33.465Z,13.80
2019-05-09T08:07:34.922Z,13.70
2019-05-09T08:12:38.930Z,13.90
2019-05-09T08:17:40.264Z,14.10
2019-05-09T08:22:50.034Z,14.20
2019-05-09T08:27:45.140Z,14.10
2019-05-09T08:32:48.234Z,14.00
2019-05-09T08:37:50.036Z,14.20
2019-05-09T08:42:51.503Z,14.40
2019-05-09T08:47:53.146Z,14.60
2019-05-09T08:52:54.747Z,14.50
2019-05-09T08:57:58.425Z,14.30
2019-05-09T09:02:59.869Z,14.40
2019-05-09T09:08:01.391Z,14.50
2019-05-09T09:13:02.936Z,14.80
2019-05-09T09:18:04.390Z,14.90
2019-05-09T09:23:08.580Z,15.10
2019-05-09T09:28:09.909Z,15.40
2019-05-09T09:33:13.872Z,15.30
2019-05-09T09:38:15.062Z,15.30
2019-05-09T09:43:17.686Z,15.30
2019-05-09T09:48:19.638Z,15.20
2019-05-09T09:53:21.079Z,15.40
2019-05-09T09:58:22.526Z,15.50
2019-05-09T10:03:24.463Z,15.60
2019-05-09T10:08:25.944Z,15.40
2019-05-09T10:13:28.577Z,15.40
2019-05-09T10:18:42.207Z,15.30
2019-05-09T10:23:43.587Z,15.30
2019-05-09T10:28:45.563Z,15.10
2019-05-09T10:33:48.178Z,15.00
2019-05-09T10:38:50.000Z,15.10
2019-05-09T10:43:54.099Z,15.10
2019-05-09T10:48:58.622Z,15.50
2019-05-09T10:54:00.354Z,15.30
2019-05-09T10:59:01.814Z,15.40
2019-05-09T11:04:03.385Z,15.50
2019-05-09T11:09:08.622Z,15.90
2019-05-09T11:14:10.318Z,16.70
2019-05-09T11:19:11.798Z,16.50
2019-05-09T11:24:13.260Z,16.80
2019-05-09T11:29:14.735Z,16.70
2019-05-09T11:34:18.641Z,17.30
2019-05-09T11:39:35.097Z,17.60
2019-05-09T11:44:23.248Z,17.30
2019-05-09T11:49:24.780Z,17.00
2019-05-09T11:54:27.953Z,16.90
2019-05-09T11:59:29.670Z,16.90
2019-05-09T12:04:31.208Z,16.60
2019-05-09T12:09:32.693Z,16.40
2019-05-09T12:14:34.267Z,17.20
2019-05-09T12:19:38.063Z,17.70
2019-05-09T12:24:39.246Z,17.20
2019-05-09T12:29:40.696Z,16.70
2019-05-09T12:34:42.239Z,16.20
2019-05-09T12:39:43.733Z,15.70
2019-05-09T12:44:45.360Z,15.00
2019-05-09T12:49:48.795Z,14.80
2019-05-09T12:54:50.333Z,14.60
2019-05-09T12:59:53.052Z,14.60
2019-05-09T13:04:55.809Z,14.80
2019-05-09T13:09:58.231Z,15.30
2019-05-09T13:15:00.587Z,16.70
2019-05-09T13:20:03.890Z,18.40
2019-05-09T13:25:05.836Z,19.00
2019-05-09T13:30:09.281Z,18.30
2019-05-09T13:35:10.862Z,17.70
2019-05-09T13:40:12.444Z,17.70
2019-05-09T13:45:14.086Z,18.10
2019-05-09T13:50:15.790Z,17.80
2019-05-09T13:55:17.993Z,17.40
2019-05-09T14:00:20.003Z,17.50
2019-05-09T14:05:21.542Z,17.60
2019-05-09T14:10:23.789Z,16.80
2019-05-09T14:15:27.373Z,16.90
2019-05-09T14:20:28.665Z,16.60
2019-05-09T14:25:30.348Z,16.20
2019-05-09T14:30:31.943Z,16.10
2019-05-09T14:35:33.401Z,16.50
2019-05-09T14:40:37.179Z,17.40
2019-05-09T14:45:38.779Z,18.80
2019-05-09T14:50:40.503Z,19.20
2019-05-09T14:55:43.236Z,19.50
2019-05-09T15:00:44.905Z,18.80
2019-05-09T15:05:48.042Z,17.90
2019-05-09T15:10:49.632Z,17.70
2019-05-09T15:15:51.086Z,17.50
2019-05-09T15:20:52.840Z,17.40
2019-05-09T15:25:55.142Z,17.40
2019-05-09T15:30:59.139Z,17.80
2019-05-09T15:35:59.972Z,17.20
2019-05-09T15:41:01.667Z,17.10
2019-05-09T15:46:05.116Z,17.10
2019-05-09T15:51:07.580Z,17.00
2019-05-09T15:56:09.184Z,17.00
2019-05-09T16:01:10.710Z,18.00
2019-05-09T16:06:12.159Z,17.80
2019-05-09T16:11:13.735Z,17.80
2019-05-09T16:16:17.540Z,17.40
2019-05-09T16:21:18.831Z,17.00
2019-05-09T16:26:20.278Z,16.70
2019-05-09T16:31:21.738Z,17.40
2019-05-09T16:36:23.190Z,17.70
2019-05-09T16:41:24.653Z,17.50
2019-05-09T16:46:28.589Z,17.30
2019-05-09T16:51:29.933Z,17.10
2019-05-09T16:56:31.386Z,16.90
2019-05-09T17:01:34.664Z,16.70
2019-05-09T17:06:38.133Z,16.70
2019-05-09T17:11:40.392Z,16.70
2019-05-09T17:16:41.857Z,16.50
2019-05-09T17:21:48.452Z,16.30
2019-05-09T17:26:49.902Z,16.20
2019-05-09T17:31:51.411Z,15.90
2019-05-09T17:36:52.869Z,15.60
2019-05-09T17:41:54.470Z,15.60
2019-05-09T17:46:57.997Z,15.60
2019-05-09T17:51:59.586Z,15.50
2019-05-09T17:57:01.537Z,15.50
2019-05-09T18:02:03.199Z,15.40
2019-05-09T18:07:05.147Z,15.40
2019-05-09T18:12:08.246Z,15.30
2019-05-09T18:17:10.193Z,15.30
2019-05-09T18:22:11.748Z,15.20
2019-05-09T18:27:13.691Z,15.20
2019-05-09T18:32:23.439Z,15.10
2019-05-09T18:37:24.888Z,15.00
2019-05-09T18:42:27.489Z,14.90
2019-05-09T18:47:29.199Z,14.70
2019-05-09T18:52:31.174Z,14.60
2019-05-09T18:57:32.627Z,14.50
2019-05-09T19:02:35.791Z,14.40
2019-05-09T19:07:37.428Z,14.20
2019-05-09T19:12:39.021Z,14.00
2019-05-09T19:17:40.494Z,13.90
2019-05-09T19:22:41.943Z,13.90
2019-05-09T19:27:43.413Z,13.80
2019-05-09T19:32:44.969Z,13.80
2019-05-09T19:37:46.655Z,13.80
2019-05-09T19:42:48.362Z,13.70
2019-05-09T19:47:49.952Z,13.70
2019-05-09T19:52:51.489Z,13.70
2019-05-09T19:57:53.347Z,13.60
2019-05-09T20:02:55.285Z,13.60
2019-05-09T20:07:56.788Z,13.50
2019-05-09T20:13:12.395Z,13.50
2019-05-09T20:18:13.968Z,13.40
2019-05-09T20:23:15.511Z,13.30
2019-05-09T20:28:17.006Z,13.30
2019-05-09T20:33:18.841Z,13.20
2019-05-09T20:38:20.316Z,13.20
2019-05-09T20:43:21.892Z,13.10
2019-05-09T20:48:23.507Z,13.00
2019-05-09T20:53:25.050Z,13.00
2019-05-09T20:58:26.511Z,12.90
2019-05-09T21:03:28.059Z,13.00
2019-05-09T21:08:29.630Z,12.90
2019-05-09T21:13:47.113Z,12.90
2019-05-09T21:18:34.450Z,12.80
2019-05-09T21:23:37.114Z,12.70
2019-05-09T21:28:38.900Z,12.70
2019-05-09T21:33:42.802Z,12.70
2019-05-09T21:38:44.480Z,12.70
2019-05-09T21:43:46.273Z,12.70
2019-05-09T21:48:47.964Z,12.70
2019-05-09T21:53:49.511Z,12.70
2019-05-09T21:58:50.968Z,12.70
2019-05-09T22:03:52.742Z,12.70
2019-05-09T22:08:54.192Z,12.50
2019-05-09T22:13:55.654Z,12.50
2019-05-09T22:18:57.175Z,12.40
2019-05-09T22:23:58.628Z,12.20
2019-05-09T22:29:00.228Z,12.00
2019-05-09T22:34:01.686Z,12.00
2019-05-09T22:39:06.450Z,12.00
2019-05-09T22:44:08.240Z,11.90
2019-05-09T22:49:09.901Z,11.80
2019-05-09T22:54:13.079Z,11.80
2019-05-09T22:59:14.743Z,11.80
2019-05-09T23:04:16.625Z,11.80
2019-05-09T23:09:18.271Z,11.60
2019-05-09T23:14:20.331Z,11.40
2019-05-09T23:19:21.889Z,11.30
2019-05-09T23:24:28.612Z,11.10
2019-05-09T23:29:28.696Z,11.00
2019-05-09T23:34:30.148Z,10.80
2019-05-09T23:39:42.258Z,10.60
2019-05-09T23:44:43.719Z,10.40
2019-05-09T23:49:45.365Z,10.30
2019-05-09T23:55:05.204Z,10.10
